sensor_id;sensor_type;location;lat;lon;timestamp;P1;durP1;ratioP1;P2;durP2;ratioP2
71637;SDS011;59485;43.542;-5.676;2023-01-26T06:53:32;153.20;;;145.55;;
71637;SDS011;59485;43.542;-5.676;2023-01-26T06:56:32;137.40;;;130.38;;
71637;SDS011;59485;43.542;-5.676;2023-01-26T06:59:05;139.70;;;132.70;;
71637;SDS011;59485;43.542;-5.676;2023-01-26T07:12:04;152.27;;;144.65;;
71637;SDS011;59485;43.542;-5.676;2023-01-26T07:31:04;158.07;;;150.27;;
71637;SDS011;59485;43.542;-5.676;2023-01-26T07:33:32;155.60;;;147.98;;
71637;SDS011;59485;43.542;-5.676;2023-01-26T07:35:58;155.02;;;147.40;;
71637;SDS011;59485;43.542;-5.676;2023-01-26T07:38:24;160.03;;;152.07;;
71637;SDS011;59485;43.542;-5.676;2023-01-26T07:40:51;151.82;;;144.32;;
71637;SDS011;59485;43.542;-5.676;2023-01-26T07:43:16;150.45;;;142.95;;
71637;SDS011;59485;43.542;-5.676;2023-01-26T07:45:46;157.80;;;150.00;;
71637;SDS011;59485;43.542;-5.676;2023-01-26T07:48:24;159.90;;;152.10;;
71637;SDS011;59485;43.542;-5.676;2023-01-26T07:50:50;156.05;;;148.35;;
71637;SDS011;59485;43.542;-5.676;2023-01-26T07:53:16;145.00;;;137.77;;
71637;SDS011;59485;43.542;-5.676;2023-01-26T07:55:46;160.15;;;152.30;;
71637;SDS011;59485;43.542;-5.676;2023-01-26T07:58:13;189.52;;;180.50;;
71637;SDS011;59485;43.542;-5.676;2023-01-26T08:00:39;221.70;;;211.68;;
71637;SDS011;59485;43.542;-5.676;2023-01-26T08:03:13;231.33;;;221.13;;
71637;SDS011;59485;43.542;-5.676;2023-01-26T08:05:51;232.20;;;221.80;;
71637;SDS011;59485;43.542;-5.676;2023-01-26T08:08:16;243.63;;;232.93;;
71637;SDS011;59485;43.542;-5.676;2023-01-26T08:10:43;220.02;;;210.30;;
71637;SDS011;59485;43.542;-5.676;2023-01-26T08:13:08;267.27;;;255.83;;
71637;SDS011;59485;43.542;-5.676;2023-01-26T08:15:34;295.48;;;283.13;;
71637;SDS011;59485;43.542;-5.676;2023-01-26T08:17:59;336.67;;;322.77;;
71637;SDS011;59485;43.542;-5.676;2023-01-26T08:20:28;282.10;;;270.17;;
71637;SDS011;59485;43.542;-5.676;2023-01-26T08:22:53;200.45;;;191.15;;
71637;SDS011;59485;43.542;-5.676;2023-01-26T08:25:19;135.00;;;128.23;;
71637;SDS011;59485;43.542;-5.676;2023-01-26T08:27:44;133.88;;;127.10;;
71637;SDS011;59485;43.542;-5.676;2023-01-26T08:30:11;123.77;;;117.47;;
71637;SDS011;59485;43.542;-5.676;2023-01-26T08:32:42;170.50;;;162.13;;
71637;SDS011;59485;43.542;-5.676;2023-01-26T08:35:08;108.85;;;103.22;;
71637;SDS011;59485;43.542;-5.676;2023-01-26T08:37:34;111.00;;;105.28;;
71637;SDS011;59485;43.542;-5.676;2023-01-26T08:39:59;108.17;;;102.53;;
71637;SDS011;59485;43.542;-5.676;2023-01-26T08:42:25;103.68;;;98.38;;
71637;SDS011;59485;43.542;-5.676;2023-01-26T08:44:50;108.93;;;103.23;;
71637;SDS011;59485;43.542;-5.676;2023-01-26T08:47:19;93.22;;;87.43;;
71637;SDS011;59485;43.542;-5.676;2023-01-26T08:49:44;133.88;;;127.18;;
71637;SDS011;59485;43.542;-5.676;2023-01-26T08:52:10;146.53;;;139.13;;
71637;SDS011;59485;43.542;-5.676;2023-01-26T08:54:35;145.67;;;138.30;;
71637;SDS011;59485;43.542;-5.676;2023-01-26T08:57:00;142.03;;;134.93;;
71637;SDS011;59485;43.542;-5.676;2023-01-26T08:59:26;113.77;;;107.90;;
71637;SDS011;59485;43.542;-5.676;2023-01-26T09:01:51;136.23;;;129.05;;
71637;SDS011;59485;43.542;-5.676;2023-01-26T09:04:17;133.90;;;127.07;;
71637;SDS011;59485;43.542;-5.676;2023-01-26T09:06:42;124.33;;;118.03;;
71637;SDS011;59485;43.542;-5.676;2023-01-26T09:09:08;120.03;;;113.90;;
71637;SDS011;59485;43.542;-5.676;2023-01-26T09:11:37;127.88;;;121.35;;
71637;SDS011;59485;43.542;-5.676;2023-01-26T09:14:03;121.88;;;115.50;;
71637;SDS011;59485;43.542;-5.676;2023-01-26T09:16:29;142.07;;;134.87;;
71637;SDS011;59485;43.542;-5.676;2023-01-26T09:18:54;137.65;;;130.63;;
71637;SDS011;59485;43.542;-5.676;2023-01-26T09:21:20;113.67;;;107.83;;
71637;SDS011;59485;43.542;-5.676;2023-01-26T09:23:48;130.40;;;123.80;;
71637;SDS011;59485;43.542;-5.676;2023-01-26T09:26:13;132.02;;;125.30;;
71637;SDS011;59485;43.542;-5.676;2023-01-26T09:28:39;130.87;;;124.17;;
71637;SDS011;59485;43.542;-5.676;2023-01-26T09:31:05;131.50;;;124.83;;
71637;SDS011;59485;43.542;-5.676;2023-01-26T09:33:34;131.25;;;124.55;;
71637;SDS011;59485;43.542;-5.676;2023-01-26T09:36:04;140.82;;;133.77;;
71637;SDS011;59485;43.542;-5.676;2023-01-26T09:38:31;143.95;;;136.73;;
71637;SDS011;59485;43.542;-5.676;2023-01-26T09:43:37;133.70;;;126.93;;
71637;SDS011;59485;43.542;-5.676;2023-01-26T09:49:07;128.52;;;121.93;;
71637;SDS011;59485;43.542;-5.676;2023-01-26T09:54:39;182.95;;;174.20;;
71637;SDS011;59485;43.542;-5.676;2023-01-26T09:57:19;223.70;;;213.65;;
71637;SDS011;59485;43.542;-5.676;2023-01-26T10:02:48;209.53;;;199.83;;
71637;SDS011;59485;43.542;-5.676;2023-01-26T10:08:11;220.95;;;210.95;;
71637;SDS011;59485;43.542;-5.676;2023-01-26T10:10:46;244.90;;;234.10;;
71637;SDS011;59485;43.542;-5.676;2023-01-26T10:13:14;218.43;;;208.50;;
71637;SDS011;59485;43.542;-5.676;2023-01-26T10:15:41;155.80;;;148.15;;
71637;SDS011;59485;43.542;-5.676;2023-01-26T10:18:14;187.13;;;178.23;;
71637;SDS011;59485;43.542;-5.676;2023-01-26T10:20:48;216.25;;;206.45;;
71637;SDS011;59485;43.542;-5.676;2023-01-26T10:23:20;199.07;;;189.80;;
71637;SDS011;59485;43.542;-5.676;2023-01-26T10:25:49;203.27;;;193.87;;
71637;SDS011;59485;43.542;-5.676;2023-01-26T10:30:53;211.90;;;202.15;;
71637;SDS011;59485;43.542;-5.676;2023-01-26T10:33:27;209.30;;;199.68;;
71637;SDS011;59485;43.542;-5.676;2023-01-26T10:35:57;186.07;;;177.27;;
71637;SDS011;59485;43.542;-5.676;2023-01-26T10:41:01;224.82;;;214.77;;
71637;SDS011;59485;43.542;-5.676;2023-01-26T10:43:33;217.93;;;208.02;;
71637;SDS011;59485;43.542;-5.676;2023-01-26T10:46:05;199.82;;;190.63;;
71637;SDS011;59485;43.542;-5.676;2023-01-26T10:48:30;182.70;;;173.90;;
71637;SDS011;59485;43.542;-5.676;2023-01-26T10:51:13;210.17;;;200.53;;
71637;SDS011;59485;43.542;-5.676;2023-01-26T10:53:40;161.85;;;153.90;;
71637;SDS011;59485;43.542;-5.676;2023-01-26T10:56:12;168.57;;;160.45;;
71637;SDS011;59485;43.542;-5.676;2023-01-26T11:01:14;159.53;;;151.53;;
71637;SDS011;59485;43.542;-5.676;2023-01-26T11:04:04;146.18;;;138.63;;
71637;SDS011;59485;43.542;-5.676;2023-01-26T11:06:36;159.20;;;150.98;;
71637;SDS011;59485;43.542;-5.676;2023-01-26T11:12:03;173.48;;;165.00;;
71637;SDS011;59485;43.542;-5.676;2023-01-26T11:14:30;186.73;;;177.77;;
71637;SDS011;59485;43.542;-5.676;2023-01-26T11:17:04;177.03;;;168.53;;
71637;SDS011;59485;43.542;-5.676;2023-01-26T11:19:55;146.07;;;138.77;;
71637;SDS011;59485;43.542;-5.676;2023-01-26T11:23:00;143.68;;;136.40;;
71637;SDS011;59485;43.542;-5.676;2023-01-26T11:25:44;123.18;;;116.90;;
71637;SDS011;59485;43.542;-5.676;2023-01-26T11:36:34;144.53;;;137.33;;
71637;SDS011;59485;43.542;-5.676;2023-01-26T11:42:16;176.60;;;168.20;;
71637;SDS011;59485;43.542;-5.676;2023-01-26T11:48:09;177.30;;;168.60;;
71637;SDS011;59485;43.542;-5.676;2023-01-26T11:50:49;199.23;;;190.03;;
71637;SDS011;59485;43.542;-5.676;2023-01-26T12:04:30;205.13;;;195.70;;
71637;SDS011;59485;43.542;-5.676;2023-01-26T12:07:02;195.93;;;186.60;;
71637;SDS011;59485;43.542;-5.676;2023-01-26T12:09:42;155.10;;;147.43;;
71637;SDS011;59485;43.542;-5.676;2023-01-26T12:12:16;142.73;;;135.57;;
71637;SDS011;59485;43.542;-5.676;2023-01-26T12:14:52;113.03;;;107.15;;
71637;SDS011;59485;43.542;-5.676;2023-01-26T12:19:56;111.65;;;105.90;;
71637;SDS011;59485;43.542;-5.676;2023-01-26T12:25:12;350.83;;;336.83;;
71637;SDS011;59485;43.542;-5.676;2023-01-26T12:27:49;140.23;;;133.25;;
71637;SDS011;59485;43.542;-5.676;2023-01-26T12:33:42;118.00;;;112.03;;
71637;SDS011;59485;43.542;-5.676;2023-01-26T12:38:49;176.38;;;168.23;;
71637;SDS011;59485;43.542;-5.676;2023-01-26T12:41:21;122.00;;;115.87;;
71637;SDS011;59485;43.542;-5.676;2023-01-26T12:46:26;122.50;;;116.30;;
71637;SDS011;59485;43.542;-5.676;2023-01-26T12:49:02;129.03;;;122.53;;
71637;SDS011;59485;43.542;-5.676;2023-01-26T12:51:40;138.77;;;131.90;;
71637;SDS011;59485;43.542;-5.676;2023-01-26T12:54:25;139.43;;;132.50;;
71637;SDS011;59485;43.542;-5.676;2023-01-26T12:57:00;162.45;;;154.65;;
71637;SDS011;59485;43.542;-5.676;2023-01-26T12:59:32;194.60;;;185.60;;
71637;SDS011;59485;43.542;-5.676;2023-01-26T13:02:08;190.55;;;181.75;;
71637;SDS011;59485;43.542;-5.676;2023-01-26T13:04:35;266.75;;;255.30;;
71637;SDS011;59485;43.542;-5.676;2023-01-26T13:07:02;193.73;;;184.82;;
71637;SDS011;59485;43.542;-5.676;2023-01-26T13:13:00;172.63;;;164.38;;
71637;SDS011;59485;43.542;-5.676;2023-01-26T13:15:29;163.98;;;156.13;;
71637;SDS011;59485;43.542;-5.676;2023-01-26T13:17:57;217.93;;;208.07;;
71637;SDS011;59485;43.542;-5.676;2023-01-26T13:23:08;169.70;;;161.73;;
71637;SDS011;59485;43.542;-5.676;2023-01-26T13:28:39;249.88;;;239.07;;
71637;SDS011;59485;43.542;-5.676;2023-01-26T13:31:06;357.88;;;343.63;;
